sensor_id;sensor_type;location;lat;lon;timestamp;pressure;altitude;pressure_sealevel;temperature;humidity
71964;BME280;59834;52.124;5.422;2023-04-29T00:00:09;101519.88;;;9.37;100.00
71964;BME280;59834;52.124;5.422;2023-04-29T00:02:36;101530.25;;;9.38;100.00
71964;BME280;59834;52.124;5.422;2023-04-29T00:05:04;101525.09;;;9.37;100.00
71964;BME280;59834;52.124;5.422;2023-04-29T00:07:31;101520.88;;;9.34;100.00
71964;BME280;59834;52.124;5.422;2023-04-29T00:09:58;101528.78;;;9.33;100.00
71964;BME280;59834;52.124;5.422;2023-04-29T00:12:25;101530.56;;;9.32;100.00
71964;BME280;59834;52.124;5.422;2023-04-29T00:14:52;101522.72;;;9.32;100.00
71964;BME280;59834;52.124;5.422;2023-04-29T00:17:18;101535.03;;;9.29;100.00
71964;BME280;59834;52.124;5.422;2023-04-29T00:19:45;101528.22;;;9.26;100.00
71964;BME280;59834;52.124;5.422;2023-04-29T00:22:12;101529.81;;;9.29;100.00
71964;BME280;59834;52.124;5.422;2023-04-29T00:24:38;101533.31;;;9.29;100.00
71964;BME280;59834;52.124;5.422;2023-04-29T00:27:05;101535.00;;;9.30;100.00
71964;BME280;59834;52.124;5.422;2023-04-29T00:29:33;101541.16;;;9.29;100.00
71964;BME280;59834;52.124;5.422;2023-04-29T00:32:00;101547.13;;;9.31;100.00
71964;BME280;59834;52.124;5.422;2023-04-29T00:34:26;101546.28;;;9.31;100.00
71964;BME280;59834;52.124;5.422;2023-04-29T00:36:53;101548.97;;;9.29;100.00
71964;BME280;59834;52.124;5.422;2023-04-29T00:39:19;101552.50;;;9.28;100.00
71964;BME280;59834;52.124;5.422;2023-04-29T00:41:46;101552.63;;;9.25;100.00
71964;BME280;59834;52.124;5.422;2023-04-29T00:44:12;101555.19;;;9.27;100.00
71964;BME280;59834;52.124;5.422;2023-04-29T00:46:39;101553.50;;;9.26;100.00
71964;BME280;59834;52.124;5.422;2023-04-29T00:49:06;101550.16;;;9.22;100.00
71964;BME280;59834;52.124;5.422;2023-04-29T00:51:35;101557.16;;;9.21;100.00
71964;BME280;59834;52.124;5.422;2023-04-29T00:54:06;101556.41;;;9.19;100.00
71964;BME280;59834;52.124;5.422;2023-04-29T00:56:34;101557.38;;;9.17;100.00
71964;BME280;59834;52.124;5.422;2023-04-29T00:59:02;101557.38;;;9.17;100.00
71964;BME280;59834;52.124;5.422;2023-04-29T01:01:29;101563.38;;;9.19;100.00
71964;BME280;59834;52.124;5.422;2023-04-29T01:03:56;101567.75;;;9.18;100.00
71964;BME280;59834;52.124;5.422;2023-04-29T01:06:48;101572.13;;;9.18;100.00
71964;BME280;59834;52.124;5.422;2023-04-29T01:15:15;101576.38;;;9.20;100.00
71964;BME280;59834;52.124;5.422;2023-04-29T01:17:59;101583.50;;;9.17;100.00
71964;BME280;59834;52.124;5.422;2023-04-29T01:20:29;101585.19;;;9.18;100.00
71964;BME280;59834;52.124;5.422;2023-04-29T01:22:56;101590.69;;;9.12;100.00
71964;BME280;59834;52.124;5.422;2023-04-29T01:25:23;101592.44;;;9.11;100.00
71964;BME280;59834;52.124;5.422;2023-04-29T01:28:04;101594.31;;;9.09;100.00
71964;BME280;59834;52.124;5.422;2023-04-29T01:33:07;101596.22;;;9.06;100.00
71964;BME280;59834;52.124;5.422;2023-04-29T01:41:50;101598.94;;;9.03;100.00
71964;BME280;59834;52.124;5.422;2023-04-29T01:44:23;101601.63;;;9.01;100.00
71964;BME280;59834;52.124;5.422;2023-04-29T01:46:51;101609.41;;;9.03;100.00
71964;BME280;59834;52.124;5.422;2023-04-29T01:49:26;101606.69;;;9.04;100.00
71964;BME280;59834;52.124;5.422;2023-04-29T01:51:53;101602.41;;;9.03;100.00
71964;BME280;59834;52.124;5.422;2023-04-29T01:54:20;101604.09;;;9.04;100.00
71964;BME280;59834;52.124;5.422;2023-04-29T01:56:47;101607.53;;;9.05;99.77
71964;BME280;59834;52.124;5.422;2023-04-29T01:59:14;101604.03;;;9.06;100.00
71964;BME280;59834;52.124;5.422;2023-04-29T02:01:41;101610.25;;;9.03;100.00
71964;BME280;59834;52.124;5.422;2023-04-29T02:04:08;101619.84;;;9.03;100.00
71964;BME280;59834;52.124;5.422;2023-04-29T02:06:34;101612.91;;;9.02;100.00
71964;BME280;59834;52.124;5.422;2023-04-29T02:09:01;101613.78;;;9.02;100.00
71964;BME280;59834;52.124;5.422;2023-04-29T02:11:27;101618.00;;;9.05;100.00
71964;BME280;59834;52.124;5.422;2023-04-29T02:13:54;101622.31;;;9.06;100.00
71964;BME280;59834;52.124;5.422;2023-04-29T02:16:21;101618.84;;;9.05;100.00
71964;BME280;59834;52.124;5.422;2023-04-29T02:18:48;101624.06;;;9.05;100.00
71964;BME280;59834;52.124;5.422;2023-04-29T02:21:15;101635.38;;;9.06;100.00
71964;BME280;59834;52.124;5.422;2023-04-29T02:23:42;101634.50;;;9.05;100.00
71964;BME280;59834;52.124;5.422;2023-04-29T02:26:09;101629.44;;;9.02;99.77
71964;BME280;59834;52.124;5.422;2023-04-29T02:28:36;101633.66;;;9.05;100.00
71964;BME280;59834;52.124;5.422;2023-04-29T02:31:02;101644.09;;;9.05;100.00
71964;BME280;59834;52.124;5.422;2023-04-29T02:33:29;101639.72;;;9.05;99.69
71964;BME280;59834;52.124;5.422;2023-04-29T02:35:56;101639.72;;;9.05;99.72
71964;BME280;59834;52.124;5.422;2023-04-29T02:38:25;101649.19;;;9.08;99.94
71964;BME280;59834;52.124;5.422;2023-04-29T02:40:52;101650.97;;;9.07;99.23
71964;BME280;59834;52.124;5.422;2023-04-29T02:43:18;101661.41;;;9.07;99.75
71964;BME280;59834;52.124;5.422;2023-04-29T02:45:47;101656.19;;;9.07;99.51
71964;BME280;59834;52.124;5.422;2023-04-29T02:48:14;101667.44;;;9.09;99.35
71964;BME280;59834;52.124;5.422;2023-04-29T02:50:41;101663.03;;;9.10;99.86
71964;BME280;59834;52.124;5.422;2023-04-29T02:53:07;101667.47;;;9.08;98.80
71964;BME280;59834;52.124;5.422;2023-04-29T02:55:34;101675.31;;;9.08;98.95
71964;BME280;59834;52.124;5.422;2023-04-29T02:58:00;101664.03;;;9.07;99.02
71964;BME280;59834;52.124;5.422;2023-04-29T03:00:27;101675.44;;;9.05;99.04
71964;BME280;59834;52.124;5.422;2023-04-29T03:02:53;101678.84;;;9.07;99.45
71964;BME280;59834;52.124;5.422;2023-04-29T03:05:20;101685.84;;;9.06;99.94
71964;BME280;59834;52.124;5.422;2023-04-29T03:07:47;101689.28;;;9.07;99.91
71964;BME280;59834;52.124;5.422;2023-04-29T03:10:13;101679.78;;;9.06;99.69
71964;BME280;59834;52.124;5.422;2023-04-29T03:12:40;101685.84;;;9.06;99.97
71964;BME280;59834;52.124;5.422;2023-04-29T03:15:07;101699.75;;;9.07;99.82
71964;BME280;59834;52.124;5.422;2023-04-29T03:17:33;101696.19;;;9.08;99.47
71964;BME280;59834;52.124;5.422;2023-04-29T03:20:00;101687.75;;;9.03;99.55
71964;BME280;59834;52.124;5.422;2023-04-29T03:22:27;101699.88;;;9.04;99.36
71964;BME280;59834;52.124;5.422;2023-04-29T03:24:53;101699.94;;;9.02;98.17
71964;BME280;59834;52.124;5.422;2023-04-29T03:27:20;101708.63;;;9.03;98.57
71964;BME280;59834;52.124;5.422;2023-04-29T03:29:46;101702.56;;;9.02;98.35
71964;BME280;59834;52.124;5.422;2023-04-29T03:32:13;101708.63;;;9.03;98.05
71964;BME280;59834;52.124;5.422;2023-04-29T03:35:04;101703.44;;;9.01;97.60
71964;BME280;59834;52.124;5.422;2023-04-29T03:37:31;101700.00;;;9.01;98.03
71964;BME280;59834;52.124;5.422;2023-04-29T03:39:57;101700.06;;;8.99;97.30
71964;BME280;59834;52.124;5.422;2023-04-29T03:42:24;101711.38;;;9.00;96.67
71964;BME280;59834;52.124;5.422;2023-04-29T03:44:56;101709.59;;;9.00;96.83
71964;BME280;59834;52.124;5.422;2023-04-29T03:47:25;101713.13;;;8.99;96.75
71964;BME280;59834;52.124;5.422;2023-04-29T03:49:54;101719.06;;;9.03;96.30
71964;BME280;59834;52.124;5.422;2023-04-29T03:52:27;101715.66;;;9.01;96.66
71964;BME280;59834;52.124;5.422;2023-04-29T03:54:54;101720.03;;;9.00;96.02
71964;BME280;59834;52.124;5.422;2023-04-29T03:57:22;101728.81;;;8.99;95.53
71964;BME280;59834;52.124;5.422;2023-04-29T04:00:14;101730.50;;;9.00;94.98
71964;BME280;59834;52.124;5.422;2023-04-29T04:02:50;101726.94;;;9.01;94.33
71964;BME280;59834;52.124;5.422;2023-04-29T04:05:19;101730.50;;;9.00;94.59
71964;BME280;59834;52.124;5.422;2023-04-29T04:07:47;101733.16;;;8.98;93.97
71964;BME280;59834;52.124;5.422;2023-04-29T04:13:00;101738.38;;;8.98;93.87
71964;BME280;59834;52.124;5.422;2023-04-29T04:15:27;101735.72;;;9.00;93.58
71964;BME280;59834;52.124;5.422;2023-04-29T04:17:53;101746.19;;;8.98;93.88
71964;BME280;59834;52.124;5.422;2023-04-29T04:20:20;101746.19;;;8.98;93.09
71964;BME280;59834;52.124;5.422;2023-04-29T04:22:47;101749.69;;;8.99;93.49
71964;BME280;59834;52.124;5.422;2023-04-29T04:25:43;101747.13;;;8.97;93.26
71964;BME280;59834;52.124;5.422;2023-04-29T04:31:31;101749.69;;;8.99;93.20
71964;BME280;59834;52.124;5.422;2023-04-29T04:34:11;101747.00;;;9.01;91.62
71964;BME280;59834;52.124;5.422;2023-04-29T04:36:48;101753.03;;;9.03;91.50
71964;BME280;59834;52.124;5.422;2023-04-29T04:39:21;101758.28;;;9.01;91.61
71964;BME280;59834;52.124;5.422;2023-04-29T04:41:52;101753.91;;;9.02;91.71
71964;BME280;59834;52.124;5.422;2023-04-29T04:44:19;101763.47;;;9.03;91.83
71964;BME280;59834;52.124;5.422;2023-04-29T04:46:46;101777.41;;;9.02;91.86
71964;BME280;59834;52.124;5.422;2023-04-29T04:49:12;101772.19;;;9.02;91.90
71964;BME280;59834;52.124;5.422;2023-04-29T04:51:39;101774.81;;;9.02;93.21
71964;BME280;59834;52.124;5.422;2023-04-29T04:54:08;101780.03;;;9.02;93.14
71964;BME280;59834;52.124;5.422;2023-04-29T04:56:35;101791.34;;;9.02;93.12
71964;BME280;59834;52.124;5.422;2023-04-29T04:59:03;101793.81;;;9.05;93.36
71964;BME280;59834;52.124;5.422;2023-04-29T05:01:30;101793.81;;;9.05;93.18
71964;BME280;59834;52.124;5.422;2023-04-29T05:03:59;101792.06;;;9.06;93.93
71964;BME280;59834;52.124;5.422;2023-04-29T05:06:44;101802.50;;;9.06;93.11
71964;BME280;59834;52.124;5.422;2023-04-29T05:09:11;101803.22;;;9.09;93.33
71964;BME280;59834;52.124;5.422;2023-04-29T05:11:38;101802.09;;;9.15;93.03
71964;BME280;59834;52.124;5.422;2023-04-29T05:14:07;101808.91;;;9.19;93.48
71964;BME280;59834;52.124;5.422;2023-04-29T05:16:34;101809.69;;;9.21;92.74
71964;BME280;59834;52.124;5.422;2023-04-29T05:19:14;101813.84;;;9.25;93.19
71964;BME280;59834;52.124;5.422;2023-04-29T05:21:57;101811.06;;;9.30;93.24
71964;BME280;59834;52.124;5.422;2023-04-29T05:24:24;101821.41;;;9.33;93.68
71964;BME280;59834;52.124;5.422;2023-04-29T05:26:54;101820.97;;;9.42;93.28
71964;BME280;59834;52.124;5.422;2023-04-29T05:29:20;101823.53;;;9.43;93.31
71964;BME280;59834;52.124;5.422;2023-04-29T05:31:47;101821.56;;;9.49;92.47
71964;BME280;59834;52.124;5.422;2023-04-29T05:34:14;101828.38;;;9.53;92.41
71964;BME280;59834;52.124;5.422;2023-04-29T05:36:41;101827.13;;;9.61;92.41
71964;BME280;59834;52.124;5.422;2023-04-29T05:39:09;101826.44;;;9.77;91.88
71964;BME280;59834;52.124;5.422;2023-04-29T05:45:47;101832.97;;;9.87;91.44
71964;BME280;59834;52.124;5.422;2023-04-29T05:48:28;101843.66;;;10.01;90.58
71964;BME280;59834;52.124;5.422;2023-04-29T05:50:55;101838.78;;;10.12;90.26
71964;BME280;59834;52.124;5.422;2023-04-29T05:53:21;101840.34;;;10.17;90.13
71964;BME280;59834;52.124;5.422;2023-04-29T05:56:03;101842.41;;;10.29;89.83
71964;BME280;59834;52.124;5.422;2023-04-29T05:59:02;101856.91;;;10.36;89.99
71964;BME280;59834;52.124;5.422;2023-04-29T06:01:31;101846.69;;;10.87;87.46
71964;BME280;59834;52.124;5.422;2023-04-29T06:03:58;101850.03;;;11.07;86.97
71964;BME280;59834;52.124;5.422;2023-04-29T06:06:25;101858.13;;;11.20;85.87
71964;BME280;59834;52.124;5.422;2023-04-29T06:08:53;101866.72;;;11.05;84.98
71964;BME280;59834;52.124;5.422;2023-04-29T06:11:21;101869.91;;;10.75;86.78
71964;BME280;59834;52.124;5.422;2023-04-29T06:14:02;101868.09;;;10.58;87.41
71964;BME280;59834;52.124;5.422;2023-04-29T06:16:30;101869.78;;;10.59;87.58
71964;BME280;59834;52.124;5.422;2023-04-29T06:19:00;101877.56;;;10.61;88.26
71964;BME280;59834;52.124;5.422;2023-04-29T06:21:32;101883.78;;;10.77;87.97
71964;BME280;59834;52.124;5.422;2023-04-29T06:28:04;101884.03;;;10.54;88.80
71964;BME280;59834;52.124;5.422;2023-04-29T06:34:48;101893.34;;;10.78;87.25
71964;BME280;59834;52.124;5.422;2023-04-29T06:37:15;101898.75;;;10.56;88.15
71964;BME280;59834;52.124;5.422;2023-04-29T06:39:46;101901.41;;;10.55;87.91
71964;BME280;59834;52.124;5.422;2023-04-29T06:46:45;101919.16;;;10.86;87.31
71964;BME280;59834;52.124;5.422;2023-04-29T06:49:11;101917.19;;;10.91;85.96
71964;BME280;59834;52.124;5.422;2023-04-29T06:51:42;101935.75;;;10.87;85.40
71964;BME280;59834;52.124;5.422;2023-04-29T06:54:09;101936.03;;;10.80;86.44
71964;BME280;59834;52.124;5.422;2023-04-29T06:56:40;101935.19;;;10.80;86.77
71964;BME280;59834;52.124;5.422;2023-04-29T06:59:39;101936.47;;;11.07;85.96
71964;BME280;59834;52.124;5.422;2023-04-29T07:03:11;101933.75;;;11.45;84.13
71964;BME280;59834;52.124;5.422;2023-04-29T07:06:31;101939.16;;;11.60;83.06
71964;BME280;59834;52.124;5.422;2023-04-29T07:12:46;101951.09;;;11.65;82.20
71964;BME280;59834;52.124;5.422;2023-04-29T07:15:24;101958.28;;;11.44;82.51
71964;BME280;59834;52.124;5.422;2023-04-29T07:17:55;101963.13;;;11.35;82.61
71964;BME280;59834;52.124;5.422;2023-04-29T07:20:22;101951.88;;;11.50;81.42
71964;BME280;59834;52.124;5.422;2023-04-29T07:22:52;101962.00;;;11.57;82.05
71964;BME280;59834;52.124;5.422;2023-04-29T07:37:07;101973.88;;;11.65;81.80
71964;BME280;59834;52.124;5.422;2023-04-29T07:40:22;101976.63;;;11.62;80.02
71964;BME280;59834;52.124;5.422;2023-04-29T07:50:18;101996.94;;;11.75;78.84
71964;BME280;59834;52.124;5.422;2023-04-29T07:52:59;101987.66;;;11.87;77.10
71964;BME280;59834;52.124;5.422;2023-04-29T07:55:57;101998.19;;;12.03;76.76
71964;BME280;59834;52.124;5.422;2023-04-29T07:58:24;101997.38;;;12.36;75.76
71964;BME280;59834;52.124;5.422;2023-04-29T08:01:05;101999.09;;;12.19;74.78
71964;BME280;59834;52.124;5.422;2023-04-29T08:03:31;102007.59;;;12.24;75.02
71964;BME280;59834;52.124;5.422;2023-04-29T08:06:02;102007.84;;;12.53;74.95
71964;BME280;59834;52.124;5.422;2023-04-29T08:08:37;102008.38;;;12.76;72.25
71964;BME280;59834;52.124;5.422;2023-04-29T08:11:06;102010.91;;;12.77;72.14
71964;BME280;59834;52.124;5.422;2023-04-29T08:13:33;102005.31;;;12.67;70.84
71964;BME280;59834;52.124;5.422;2023-04-29T08:15:59;102011.03;;;12.76;72.54
71964;BME280;59834;52.124;5.422;2023-04-29T08:18:34;102015.00;;;13.14;71.60
71964;BME280;59834;52.124;5.422;2023-04-29T08:21:11;102014.84;;;13.49;71.41
71964;BME280;59834;52.124;5.422;2023-04-29T08:23:43;102022.19;;;13.28;69.18
71964;BME280;59834;52.124;5.422;2023-04-29T08:26:10;102017.91;;;13.10;69.56
71964;BME280;59834;52.124;5.422;2023-04-29T08:28:38;102017.53;;;12.84;70.04
71964;BME280;59834;52.124;5.422;2023-04-29T08:31:05;102022.09;;;12.65;70.99
71964;BME280;59834;52.124;5.422;2023-04-29T08:33:38;102031.88;;;12.45;70.91
71964;BME280;59834;52.124;5.422;2023-04-29T08:36:05;102025.44;;;12.18;72.19
71964;BME280;59834;52.124;5.422;2023-04-29T08:38:34;102022.31;;;12.27;71.94
71964;BME280;59834;52.124;5.422;2023-04-29T08:41:25;102016.66;;;12.52;71.40
71964;BME280;59834;52.124;5.422;2023-04-29T08:43:53;102018.56;;;13.13;70.41
71964;BME280;59834;52.124;5.422;2023-04-29T08:46:24;102031.28;;;13.68;69.08
71964;BME280;59834;52.124;5.422;2023-04-29T08:48:51;102024.59;;;13.93;67.48
71964;BME280;59834;52.124;5.422;2023-04-29T08:51:20;102035.16;;;13.77;67.41
71964;BME280;59834;52.124;5.422;2023-04-29T08:53:47;102032.81;;;13.57;66.26
71964;BME280;59834;52.124;5.422;2023-04-29T09:00:08;102041.53;;;12.94;67.97
71964;BME280;59834;52.124;5.422;2023-04-29T09:02:46;102037.13;;;12.79;68.53
71964;BME280;59834;52.124;5.422;2023-04-29T09:05:16;102048.22;;;12.84;68.84
71964;BME280;59834;52.124;5.422;2023-04-29T09:07:54;102047.53;;;12.64;69.76
71964;BME280;59834;52.124;5.422;2023-04-29T09:10:37;102053.72;;;12.46;70.27
71964;BME280;59834;52.124;5.422;2023-04-29T09:17:03;102052.47;;;12.86;69.45
71964;BME280;59834;52.124;5.422;2023-04-29T09:19:34;102055.03;;;12.88;69.66
71964;BME280;59834;52.124;5.422;2023-04-29T09:22:09;102051.56;;;13.51;67.49
71964;BME280;59834;52.124;5.422;2023-04-29T09:24:41;102062.72;;;13.86;66.73
71964;BME280;59834;52.124;5.422;2023-04-29T09:27:25;102057.66;;;13.83;66.40
71964;BME280;59834;52.124;5.422;2023-04-29T09:30:11;102054.34;;;13.79;67.30
71964;BME280;59834;52.124;5.422;2023-04-29T09:32:44;102066.56;;;13.80;65.41
71964;BME280;59834;52.124;5.422;2023-04-29T09:35:23;102058.00;;;13.77;65.31
71964;BME280;59834;52.124;5.422;2023-04-29T09:37:51;102072.72;;;13.65;65.24
71964;BME280;59834;52.124;5.422;2023-04-29T09:40:32;102067.75;;;13.75;65.00
71964;BME280;59834;52.124;5.422;2023-04-29T09:43:16;102072.78;;;14.09;64.92
71964;BME280;59834;52.124;5.422;2023-04-29T09:45:45;102069.63;;;14.33;63.77
71964;BME280;59834;52.124;5.422;2023-04-29T09:48:14;102079.00;;;14.23;63.61
71964;BME280;59834;52.124;5.422;2023-04-29T09:50:42;102072.75;;;13.95;63.69
71964;BME280;59834;52.124;5.422;2023-04-29T09:53:27;102082.00;;;14.17;63.65
71964;BME280;59834;52.124;5.422;2023-04-29T09:56:00;102072.78;;;14.09;63.02
71964;BME280;59834;52.124;5.422;2023-04-29T09:58:28;102075.72;;;13.89;63.10
71964;BME280;59834;52.124;5.422;2023-04-29T10:00:58;102087.13;;;13.58;63.89
71964;BME280;59834;52.124;5.422;2023-04-29T10:03:37;102085.59;;;13.70;64.21
71964;BME280;59834;52.124;5.422;2023-04-29T10:06:06;102084.78;;;13.99;62.59
71964;BME280;59834;52.124;5.422;2023-04-29T10:08:33;102077.50;;;14.19;61.81
71964;BME280;59834;52.124;5.422;2023-04-29T10:11:02;102069.63;;;14.47;62.59
71964;BME280;59834;52.124;5.422;2023-04-29T10:13:29;102072.16;;;14.79;61.64
71964;BME280;59834;52.124;5.422;2023-04-29T10:16:19;102071.75;;;14.85;60.21
71964;BME280;59834;52.124;5.422;2023-04-29T10:18:54;102080.69;;;14.68;62.21
71964;BME280;59834;52.124;5.422;2023-04-29T10:21:33;102074.91;;;14.33;62.03
71964;BME280;59834;52.124;5.422;2023-04-29T10:24:03;102097.34;;;13.94;62.56
71964;BME280;59834;52.124;5.422;2023-04-29T10:26:44;102083.63;;;13.89;63.09
71964;BME280;59834;52.124;5.422;2023-04-29T10:29:17;102085.72;;;14.43;61.97
71964;BME280;59834;52.124;5.422;2023-04-29T10:32:32;102078.16;;;14.67;61.18
71964;BME280;59834;52.124;5.422;2023-04-29T10:35:42;102079.84;;;14.96;60.38
71964;BME280;59834;52.124;5.422;2023-04-29T10:48:16;102095.28;;;14.59;60.28
71964;BME280;59834;52.124;5.422;2023-04-29T10:53:35;102086.38;;;15.32;59.03
71964;BME280;59834;52.124;5.422;2023-04-29T10:59:13;102089.53;;;15.10;58.25
71964;BME280;59834;52.124;5.422;2023-04-29T11:01:45;102081.53;;;14.97;57.90
71964;BME280;59834;52.124;5.422;2023-04-29T11:04:18;102096.91;;;14.62;59.08
71964;BME280;59834;52.124;5.422;2023-04-29T11:07:25;102087.53;;;14.42;59.46
71964;BME280;59834;52.124;5.422;2023-04-29T11:09:57;102084.75;;;14.74;59.18
71964;BME280;59834;52.124;5.422;2023-04-29T11:12:27;102095.66;;;14.68;59.42
71964;BME280;59834;52.124;5.422;2023-04-29T11:15:16;102085.88;;;14.70;59.52
71964;BME280;59834;52.124;5.422;2023-04-29T11:17:45;102088.25;;;14.44;59.75
71964;BME280;59834;52.124;5.422;2023-04-29T11:27:48;102087.56;;;14.85;58.50
71964;BME280;59834;52.124;5.422;2023-04-29T11:30:30;102096.22;;;14.87;57.34
71964;BME280;59834;52.124;5.422;2023-04-29T11:33:08;102082.75;;;15.06;57.59
71964;BME280;59834;52.124;5.422;2023-04-29T11:35:40;102079.22;;;15.34;56.06
71964;BME280;59834;52.124;5.422;2023-04-29T11:38:08;102085.09;;;15.66;55.50
71964;BME280;59834;52.124;5.422;2023-04-29T11:40:49;102081.19;;;15.72;57.45
71964;BME280;59834;52.124;5.422;2023-04-29T11:43:27;102098.53;;;15.76;56.33
71964;BME280;59834;52.124;5.422;2023-04-29T11:46:00;102088.50;;;15.54;55.13
71964;BME280;59834;52.124;5.422;2023-04-29T11:48:27;102092.31;;;15.77;55.44
71964;BME280;59834;52.124;5.422;2023-04-29T11:51:00;102088.19;;;15.73;55.13
71964;BME280;59834;52.124;5.422;2023-04-29T11:53:52;102090.81;;;15.59;55.36
71964;BME280;59834;52.124;5.422;2023-04-29T11:56:22;102086.69;;;15.54;56.27
71964;BME280;59834;52.124;5.422;2023-04-29T11:58:55;102075.84;;;15.73;54.44
71964;BME280;59834;52.124;5.422;2023-04-29T12:01:45;102085.75;;;16.10;55.64
71964;BME280;59834;52.124;5.422;2023-04-29T12:04:22;102083.25;;;15.81;54.09
71964;BME280;59834;52.124;5.422;2023-04-29T12:06:56;102098.75;;;15.59;55.82
71964;BME280;59834;52.124;5.422;2023-04-29T12:09:25;102091.50;;;15.89;55.67
71964;BME280;59834;52.124;5.422;2023-04-29T12:12:09;102094.41;;;16.12;52.69
71964;BME280;59834;52.124;5.422;2023-04-29T12:17:48;102085.28;;;15.90;53.71
71964;BME280;59834;52.124;5.422;2023-04-29T12:20:26;102083.81;;;15.86;54.39
71964;BME280;59834;52.124;5.422;2023-04-29T12:23:13;102090.00;;;15.85;54.27
71964;BME280;59834;52.124;5.422;2023-04-29T12:26:00;102085.53;;;16.00;54.37
71964;BME280;59834;52.124;5.422;2023-04-29T12:28:30;102078.25;;;16.03;52.89
71964;BME280;59834;52.124;5.422;2023-04-29T12:35:18;102082.03;;;16.12;54.47
71964;BME280;59834;52.124;5.422;2023-04-29T12:37:51;102088.00;;;15.62;54.93
71964;BME280;59834;52.124;5.422;2023-04-29T12:40:27;102084.69;;;15.31;56.36
71964;BME280;59834;52.124;5.422;2023-04-29T12:43:07;102083.66;;;15.61;56.02
71964;BME280;59834;52.124;5.422;2023-04-29T12:45:39;102088.16;;;16.00;55.03
71964;BME280;59834;52.124;5.422;2023-04-29T12:48:29;102083.69;;;16.40;54.87
71964;BME280;59834;52.124;5.422;2023-04-29T12:51:55;102091.81;;;16.37;55.33
71964;BME280;59834;52.124;5.422;2023-04-29T12:55:13;102093.41;;;16.40;55.05
71964;BME280;59834;52.124;5.422;2023-04-29T12:57:49;102098.00;;;16.11;54.68
71964;BME280;59834;52.124;5.422;2023-04-29T13:00:26;102095.38;;;16.11;54.02
71964;BME280;59834;52.124;5.422;2023-04-29T13:03:10;102093.69;;;16.35;54.34
71964;BME280;59834;52.124;5.422;2023-04-29T13:09:08;102106.22;;;15.52;55.97
71964;BME280;59834;52.124;5.422;2023-04-29T13:12:09;102097.63;;;15.63;56.78
71964;BME280;59834;52.124;5.422;2023-04-29T13:14:35;102104.53;;;16.05;54.53
71964;BME280;59834;52.124;5.422;2023-04-29T13:17:09;102098.56;;;16.41;54.04
71964;BME280;59834;52.124;5.422;2023-04-29T13:19:37;102100.88;;;16.46;54.24
71964;BME280;59834;52.124;5.422;2023-04-29T13:22:17;102109.72;;;16.07;53.73
71964;BME280;59834;52.124;5.422;2023-04-29T13:24:47;102105.63;;;16.28;53.71
71964;BME280;59834;52.124;5.422;2023-04-29T13:27:17;102102.69;;;16.45;53.57
71964;BME280;59834;52.124;5.422;2023-04-29T13:29:44;102104.91;;;16.52;52.53
71964;BME280;59834;52.124;5.422;2023-04-29T13:32:10;102101.13;;;16.68;52.42
71964;BME280;59834;52.124;5.422;2023-04-29T13:34:37;102105.38;;;16.84;52.01
71964;BME280;59834;52.124;5.422;2023-04-29T13:37:09;102097.81;;;17.03;51.73
71964;BME280;59834;52.124;5.422;2023-04-29T13:39:36;102107.03;;;17.10;50.84
71964;BME280;59834;52.124;5.422;2023-04-29T13:42:03;102114.03;;;16.86;51.38
71964;BME280;59834;52.124;5.422;2023-04-29T13:44:34;102109.25;;;16.65;52.69
71964;BME280;59834;52.124;5.422;2023-04-29T13:47:22;102116.84;;;16.32;51.55
71964;BME280;59834;52.124;5.422;2023-04-29T13:49:54;102116.56;;;15.96;54.10
71964;BME280;59834;52.124;5.422;2023-04-29T13:52:44;102119.13;;;16.11;53.68
71964;BME280;59834;52.124;5.422;2023-04-29T13:55:17;102116.72;;;16.20;53.40
71964;BME280;59834;52.124;5.422;2023-04-29T13:57:47;102118.66;;;16.31;54.03
71964;BME280;59834;52.124;5.422;2023-04-29T14:00:16;102118.22;;;16.37;53.23
71964;BME280;59834;52.124;5.422;2023-04-29T14:02:46;102122.84;;;16.21;52.97
71964;BME280;59834;52.124;5.422;2023-04-29T14:05:19;102129.22;;;16.31;53.84
71964;BME280;59834;52.124;5.422;2023-04-29T14:07:45;102126.00;;;16.26;54.40
71964;BME280;59834;52.124;5.422;2023-04-29T14:10:19;102134.19;;;15.96;53.89
71964;BME280;59834;52.124;5.422;2023-04-29T14:12:46;102132.09;;;16.01;53.62
71964;BME280;59834;52.124;5.422;2023-04-29T14:15:14;102132.25;;;16.25;53.12
71964;BME280;59834;52.124;5.422;2023-04-29T14:17:41;102141.66;;;16.16;53.51
71964;BME280;59834;52.124;5.422;2023-04-29T14:20:08;102138.41;;;15.98;53.33
71964;BME280;59834;52.124;5.422;2023-04-29T14:22:36;102137.22;;;16.17;52.84
71964;BME280;59834;52.124;5.422;2023-04-29T14:28:44;102139.09;;;16.15;53.81
71964;BME280;59834;52.124;5.422;2023-04-29T14:31:42;102148.69;;;16.03;53.66
71964;BME280;59834;52.124;5.422;2023-04-29T14:38:19;102150.44;;;16.17;52.67
71964;BME280;59834;52.124;5.422;2023-04-29T14:44:38;102149.16;;;16.22;52.32
71964;BME280;59834;52.124;5.422;2023-04-29T14:47:35;102147.78;;;16.17;53.26
71964;BME280;59834;52.124;5.422;2023-04-29T14:50:04;102144.59;;;16.12;52.52
71964;BME280;59834;52.124;5.422;2023-04-29T14:52:34;102148.19;;;16.11;52.32
71964;BME280;59834;52.124;5.422;2023-04-29T14:55:01;102147.03;;;16.15;52.93
71964;BME280;59834;52.124;5.422;2023-04-29T15:01:06;102150.44;;;16.17;51.71
71964;BME280;59834;52.124;5.422;2023-04-29T15:03:50;102155.50;;;16.20;51.74
71964;BME280;59834;52.124;5.422;2023-04-29T15:06:33;102162.47;;;16.21;50.48
71964;BME280;59834;52.124;5.422;2023-04-29T15:10:04;102154.19;;;16.00;52.84
71964;BME280;59834;52.124;5.422;2023-04-29T15:12:35;102158.06;;;15.94;51.86
71964;BME280;59834;52.124;5.422;2023-04-29T15:15:02;102157.94;;;15.96;52.01
71964;BME280;59834;52.124;5.422;2023-04-29T15:17:29;102156.38;;;15.93;51.66
71964;BME280;59834;52.124;5.422;2023-04-29T15:19:56;102161.03;;;16.02;51.79